sensor_id;sensor_type;location;lat;lon;timestamp;pressure;altitude;pressure_sealevel;temperature;humidity
71239;BME280;61342;51.442;7.370;2023-03-23T00:00:09;98923.09;;;12.91;98.54
71239;BME280;61342;51.442;7.370;2023-03-23T00:01:11;98931.72;;;12.91;98.51
71239;BME280;61342;51.442;7.370;2023-03-23T00:02:15;98926.50;;;12.89;98.87
71239;BME280;61342;51.442;7.370;2023-03-23T00:03:16;98935.00;;;12.87;98.90
71239;BME280;61342;51.442;7.370;2023-03-23T00:04:17;98920.75;;;12.82;98.99
71239;BME280;61342;51.442;7.370;2023-03-23T00:05:18;98926.13;;;12.85;99.57
71239;BME280;61342;51.442;7.370;2023-03-23T00:06:20;98928.47;;;12.87;99.09
71239;BME280;61342;51.442;7.370;2023-03-23T00:07:22;98909.22;;;12.82;99.55
71239;BME280;61342;51.442;7.370;2023-03-23T00:08:22;98925.72;;;12.81;99.52
71239;BME280;61342;51.442;7.370;2023-03-23T00:09:22;98917.88;;;12.82;99.73
71239;BME280;61342;51.442;7.370;2023-03-23T00:10:23;98901.88;;;12.73;99.87
71239;BME280;61342;51.442;7.370;2023-03-23T00:11:26;98906.16;;;12.72;99.74
71239;BME280;61342;51.442;7.370;2023-03-23T00:12:31;98924.78;;;12.79;99.65
71239;BME280;61342;51.442;7.370;2023-03-23T00:13:34;98910.16;;;12.77;99.94
71239;BME280;61342;51.442;7.370;2023-03-23T00:14:35;98912.09;;;12.74;100.00
71239;BME280;61342;51.442;7.370;2023-03-23T00:15:41;98916.69;;;12.77;100.00
71239;BME280;61342;51.442;7.370;2023-03-23T00:16:41;98917.84;;;12.74;100.00
71239;BME280;61342;51.442;7.370;2023-03-23T00:17:42;98896.31;;;12.68;100.00
71239;BME280;61342;51.442;7.370;2023-03-23T00:18:47;98903.63;;;12.76;100.00
71239;BME280;61342;51.442;7.370;2023-03-23T00:19:52;98888.25;;;12.66;100.00
71239;BME280;61342;51.442;7.370;2023-03-23T00:20:56;98900.38;;;12.72;100.00
71239;BME280;61342;51.442;7.370;2023-03-23T00:21:57;98899.00;;;12.73;100.00
71239;BME280;61342;51.442;7.370;2023-03-23T00:23:00;98892.47;;;12.65;100.00
71239;BME280;61342;51.442;7.370;2023-03-23T00:25:05;98894.63;;;12.72;100.00
71239;BME280;61342;51.442;7.370;2023-03-23T00:26:06;98894.22;;;12.68;100.00
71239;BME280;61342;51.442;7.370;2023-03-23T00:27:06;98907.47;;;12.71;100.00
71239;BME280;61342;51.442;7.370;2023-03-23T00:28:08;98891.34;;;12.68;100.00
71239;BME280;61342;51.442;7.370;2023-03-23T00:30:15;98886.13;;;12.67;100.00
71239;BME280;61342;51.442;7.370;2023-03-23T00:31:16;98899.78;;;12.74;100.00
71239;BME280;61342;51.442;7.370;2023-03-23T00:32:17;98894.41;;;12.70;100.00
71239;BME280;61342;51.442;7.370;2023-03-23T00:33:17;98878.28;;;12.67;100.00
71239;BME280;61342;51.442;7.370;2023-03-23T00:34:20;98899.41;;;12.70;100.00
71239;BME280;61342;51.442;7.370;2023-03-23T00:35:21;98890.34;;;12.73;100.00
71239;BME280;61342;51.442;7.370;2023-03-23T00:36:21;98894.63;;;12.72;100.00
71239;BME280;61342;51.442;7.370;2023-03-23T00:37:23;98896.34;;;12.75;100.00
71239;BME280;61342;51.442;7.370;2023-03-23T00:38:24;98901.34;;;12.75;100.00
71239;BME280;61342;51.442;7.370;2023-03-23T00:39:27;98881.16;;;12.75;100.00
71239;BME280;61342;51.442;7.370;2023-03-23T00:40:28;98887.84;;;12.77;100.00
71239;BME280;61342;51.442;7.370;2023-03-23T00:41:28;98888.63;;;12.70;99.94
71239;BME280;61342;51.442;7.370;2023-03-23T00:42:28;98881.31;;;12.69;99.95
71239;BME280;61342;51.442;7.370;2023-03-23T00:43:29;98889.22;;;12.76;100.00
71239;BME280;61342;51.442;7.370;2023-03-23T00:44:32;98900.94;;;12.78;99.83
71239;BME280;61342;51.442;7.370;2023-03-23T00:45:35;98892.50;;;12.80;100.00
71239;BME280;61342;51.442;7.370;2023-03-23T00:46:36;98876.34;;;12.70;99.83
71239;BME280;61342;51.442;7.370;2023-03-23T00:47:46;98866.16;;;12.69;99.71
71239;BME280;61342;51.442;7.370;2023-03-23T00:48:50;98876.72;;;12.74;99.61
71239;BME280;61342;51.442;7.370;2023-03-23T00:49:51;98879.03;;;12.75;99.36
71239;BME280;61342;51.442;7.370;2023-03-23T00:50:53;98888.81;;;12.80;99.71
71239;BME280;61342;51.442;7.370;2023-03-23T00:51:55;98875.34;;;12.82;99.37
71239;BME280;61342;51.442;7.370;2023-03-23T00:52:56;98873.66;;;12.79;99.36
71239;BME280;61342;51.442;7.370;2023-03-23T00:53:56;98882.66;;;12.83;99.19
71239;BME280;61342;51.442;7.370;2023-03-23T00:54:57;98888.66;;;12.85;99.00
71239;BME280;61342;51.442;7.370;2023-03-23T00:55:57;98877.28;;;12.80;99.28
71239;BME280;61342;51.442;7.370;2023-03-23T00:56:57;98866.75;;;12.75;99.13
71239;BME280;61342;51.442;7.370;2023-03-23T00:57:58;98881.34;;;12.77;99.21
71239;BME280;61342;51.442;7.370;2023-03-23T00:58:58;98894.97;;;12.84;99.36
71239;BME280;61342;51.442;7.370;2023-03-23T00:59:58;98884.41;;;12.79;98.80
71239;BME280;61342;51.442;7.370;2023-03-23T01:00:59;98882.13;;;12.85;98.97
71239;BME280;61342;51.442;7.370;2023-03-23T01:02:00;98886.13;;;12.82;99.12
71239;BME280;61342;51.442;7.370;2023-03-23T01:03:01;98881.34;;;12.84;98.90
71239;BME280;61342;51.442;7.370;2023-03-23T01:04:02;98888.09;;;12.87;98.95
71239;BME280;61342;51.442;7.370;2023-03-23T01:05:04;98897.13;;;12.91;98.58
71239;BME280;61342;51.442;7.370;2023-03-23T01:06:07;98888.47;;;12.91;98.40
71239;BME280;61342;51.442;7.370;2023-03-23T01:07:08;98875.56;;;12.84;98.44
71239;BME280;61342;51.442;7.370;2023-03-23T01:08:13;98885.00;;;12.92;98.06
71239;BME280;61342;51.442;7.370;2023-03-23T01:09:15;98881.75;;;12.88;98.06
71239;BME280;61342;51.442;7.370;2023-03-23T01:10:16;98892.31;;;12.93;98.16
71239;BME280;61342;51.442;7.370;2023-03-23T01:11:17;98883.66;;;12.93;98.11
71239;BME280;61342;51.442;7.370;2023-03-23T01:12:18;98885.38;;;12.96;98.17
71239;BME280;61342;51.442;7.370;2023-03-23T01:13:19;98880.00;;;12.93;97.72
71239;BME280;61342;51.442;7.370;2023-03-23T01:14:19;98889.81;;;12.97;97.30
71239;BME280;61342;51.442;7.370;2023-03-23T01:15:21;98874.06;;;12.91;97.77
71239;BME280;61342;51.442;7.370;2023-03-23T01:16:22;98890.56;;;12.98;97.60
71239;BME280;61342;51.442;7.370;2023-03-23T01:17:22;98891.53;;;13.00;97.31
71239;BME280;61342;51.442;7.370;2023-03-23T01:18:22;98891.31;;;12.98;97.29
71239;BME280;61342;51.442;7.370;2023-03-23T01:19:23;98889.22;;;12.99;97.18
71239;BME280;61342;51.442;7.370;2023-03-23T01:20:24;98907.66;;;13.03;97.13
71239;BME280;61342;51.442;7.370;2023-03-23T01:21:26;98910.38;;;13.01;97.05
71239;BME280;61342;51.442;7.370;2023-03-23T01:22:26;98904.78;;;13.03;96.75
71239;BME280;61342;51.442;7.370;2023-03-23T01:23:27;98897.09;;;12.98;97.04
71239;BME280;61342;51.442;7.370;2023-03-23T01:24:27;98903.25;;;13.02;96.96
71239;BME280;61342;51.442;7.370;2023-03-23T01:25:29;98899.41;;;13.00;96.76
71239;BME280;61342;51.442;7.370;2023-03-23T01:26:30;98901.72;;;13.01;96.87
71239;BME280;61342;51.442;7.370;2023-03-23T01:27:31;98887.88;;;12.92;96.95
71239;BME280;61342;51.442;7.370;2023-03-23T01:28:31;98892.28;;;13.01;96.71
71239;BME280;61342;51.442;7.370;2023-03-23T01:29:35;98886.72;;;12.95;97.09
71239;BME280;61342;51.442;7.370;2023-03-23T01:30:35;98879.78;;;12.98;97.32
71239;BME280;61342;51.442;7.370;2023-03-23T01:31:36;98881.91;;;13.05;97.21
71239;BME280;61342;51.442;7.370;2023-03-23T01:32:37;98881.69;;;13.03;97.37
71239;BME280;61342;51.442;7.370;2023-03-23T01:33:38;98876.13;;;13.05;97.54
71239;BME280;61342;51.442;7.370;2023-03-23T01:34:39;98877.47;;;13.04;97.26
71239;BME280;61342;51.442;7.370;2023-03-23T01:35:39;98870.00;;;13.01;97.16
71239;BME280;61342;51.442;7.370;2023-03-23T01:36:40;98871.34;;;13.00;97.51
71239;BME280;61342;51.442;7.370;2023-03-23T01:37:40;98880.16;;;13.02;97.37
71239;BME280;61342;51.442;7.370;2023-03-23T01:38:45;98882.88;;;13.00;97.54
71239;BME280;61342;51.442;7.370;2023-03-23T01:39:46;98873.63;;;13.02;97.94
71239;BME280;61342;51.442;7.370;2023-03-23T01:40:46;98867.09;;;13.01;97.84
71239;BME280;61342;51.442;7.370;2023-03-23T01:41:46;98864.59;;;12.98;97.98
71239;BME280;61342;51.442;7.370;2023-03-23T01:42:47;98870.00;;;13.01;98.34
71239;BME280;61342;51.442;7.370;2023-03-23T01:44:01;98877.09;;;13.00;98.32
71239;BME280;61342;51.442;7.370;2023-03-23T01:45:26;98869.41;;;12.95;98.52
71239;BME280;61342;51.442;7.370;2023-03-23T01:46:32;98877.47;;;12.97;98.77
71239;BME280;61342;51.442;7.370;2023-03-23T01:47:32;98865.19;;;12.96;98.79
71239;BME280;61342;51.442;7.370;2023-03-23T01:48:35;98865.19;;;12.96;99.02
71239;BME280;61342;51.442;7.370;2023-03-23T01:49:41;98875.56;;;12.92;99.27
71239;BME280;61342;51.442;7.370;2023-03-23T01:50:53;98882.28;;;12.94;99.30
71239;BME280;61342;51.442;7.370;2023-03-23T01:51:58;98878.66;;;12.94;99.46
71239;BME280;61342;51.442;7.370;2023-03-23T01:53:01;98882.28;;;12.94;99.63
71239;BME280;61342;51.442;7.370;2023-03-23T01:54:06;98872.13;;;12.93;99.54
71239;BME280;61342;51.442;7.370;2023-03-23T01:55:07;98883.06;;;12.95;99.89
71239;BME280;61342;51.442;7.370;2023-03-23T01:56:09;98883.47;;;12.91;100.00
71239;BME280;61342;51.442;7.370;2023-03-23T01:57:16;98868.84;;;12.82;99.95
71239;BME280;61342;51.442;7.370;2023-03-23T01:58:21;98889.81;;;12.90;100.00
71239;BME280;61342;51.442;7.370;2023-03-23T01:59:26;98898.47;;;12.90;100.00
71239;BME280;61342;51.442;7.370;2023-03-23T02:00:28;98903.66;;;12.91;100.00
71239;BME280;61342;51.442;7.370;2023-03-23T02:01:30;98880.94;;;12.80;100.00
71239;BME280;61342;51.442;7.370;2023-03-23T02:02:31;98874.44;;;12.72;100.00
71239;BME280;61342;51.442;7.370;2023-03-23T02:03:35;98895.56;;;12.90;100.00
71239;BME280;61342;51.442;7.370;2023-03-23T02:04:36;98883.25;;;12.82;100.00
71239;BME280;61342;51.442;7.370;2023-03-23T02:05:40;98891.16;;;12.89;100.00
71239;BME280;61342;51.442;7.370;2023-03-23T02:06:41;98885.75;;;12.78;100.00
71239;BME280;61342;51.442;7.370;2023-03-23T02:07:43;98891.72;;;12.87;100.00
71239;BME280;61342;51.442;7.370;2023-03-23T02:08:44;98893.66;;;12.85;100.00
71239;BME280;61342;51.442;7.370;2023-03-23T02:09:50;98876.69;;;12.81;100.00
71239;BME280;61342;51.442;7.370;2023-03-23T02:10:50;98856.34;;;12.79;100.00
71239;BME280;61342;51.442;7.370;2023-03-23T02:11:53;98837.88;;;12.82;100.00
71239;BME280;61342;51.442;7.370;2023-03-23T02:12:54;98831.53;;;12.84;100.00
71239;BME280;61342;51.442;7.370;2023-03-23T02:13:54;98826.91;;;12.81;100.00
71239;BME280;61342;51.442;7.370;2023-03-23T02:14:55;98832.88;;;12.83;100.00
71239;BME280;61342;51.442;7.370;2023-03-23T02:17:25;98818.28;;;12.81;100.00
71239;BME280;61342;51.442;7.370;2023-03-23T02:27:01;98806.75;;;12.73;100.00
71239;BME280;61342;51.442;7.370;2023-03-23T02:28:39;98796.75;;;12.67;100.00
71239;BME280;61342;51.442;7.370;2023-03-23T02:31:09;98791.19;;;12.69;100.00
71239;BME280;61342;51.442;7.370;2023-03-23T02:33:57;98796.97;;;12.69;100.00
71239;BME280;61342;51.442;7.370;2023-03-23T02:35:14;98806.38;;;12.69;100.00
71239;BME280;61342;51.442;7.370;2023-03-23T02:36:45;98807.16;;;12.70;100.00
71239;BME280;61342;51.442;7.370;2023-03-23T02:37:57;98794.47;;;12.65;100.00
71239;BME280;61342;51.442;7.370;2023-03-23T02:39:23;98803.09;;;12.65;100.00
71239;BME280;61342;51.442;7.370;2023-03-23T02:40:32;98805.59;;;12.69;100.00
71239;BME280;61342;51.442;7.370;2023-03-23T02:41:51;98816.19;;;12.66;100.00
71239;BME280;61342;51.442;7.370;2023-03-23T02:42:55;98812.16;;;12.62;100.00
71239;BME280;61342;51.442;7.370;2023-03-23T02:43:57;98825.03;;;12.68;100.00
71239;BME280;61342;51.442;7.370;2023-03-23T02:45:02;98810.03;;;12.70;100.00
71239;BME280;61342;51.442;7.370;2023-03-23T02:46:05;98798.50;;;12.70;100.00
71239;BME280;61342;51.442;7.370;2023-03-23T02:47:12;98807.91;;;12.70;100.00
71239;BME280;61342;51.442;7.370;2023-03-23T02:48:16;98821.00;;;12.71;100.00
71239;BME280;61342;51.442;7.370;2023-03-23T02:49:19;98806.38;;;12.69;100.00
71239;BME280;61342;51.442;7.370;2023-03-23T02:50:24;98807.91;;;12.70;100.00
71239;BME280;61342;51.442;7.370;2023-03-23T02:51:26;98799.84;;;12.69;100.00
71239;BME280;61342;51.442;7.370;2023-03-23T02:52:31;98794.84;;;12.69;100.00
71239;BME280;61342;51.442;7.370;2023-03-23T02:53:34;98775.44;;;12.63;100.00
71239;BME280;61342;51.442;7.370;2023-03-23T02:54:37;98789.06;;;12.69;100.00
71239;BME280;61342;51.442;7.370;2023-03-23T02:55:41;98789.28;;;12.71;100.00
71239;BME280;61342;51.442;7.370;2023-03-23T02:56:43;98789.84;;;12.70;100.00
71239;BME280;61342;51.442;7.370;2023-03-23T02:57:45;98789.84;;;12.70;100.00
71239;BME280;61342;51.442;7.370;2023-03-23T02:58:46;98786.00;;;12.67;100.00
71239;BME280;61342;51.442;7.370;2023-03-23T02:59:46;98785.44;;;12.69;100.00
71239;BME280;61342;51.442;7.370;2023-03-23T03:00:48;98789.84;;;12.70;100.00
71239;BME280;61342;51.442;7.370;2023-03-23T03:01:57;98791.19;;;12.69;100.00
71239;BME280;61342;51.442;7.370;2023-03-23T03:02:58;98783.31;;;12.69;100.00
71239;BME280;61342;51.442;7.370;2023-03-23T03:04:05;98772.56;;;12.63;100.00
71239;BME280;61342;51.442;7.370;2023-03-23T03:09:52;98773.31;;;12.63;100.00
71239;BME280;61342;51.442;7.370;2023-03-23T03:12:00;98757.38;;;12.62;100.00
71239;BME280;61342;51.442;7.370;2023-03-23T03:15:08;98781.59;;;12.59;100.00
71239;BME280;61342;51.442;7.370;2023-03-23T03:17:26;98776.03;;;12.61;100.00
71239;BME280;61342;51.442;7.370;2023-03-23T03:18:48;98777.94;;;12.59;100.00
71239;BME280;61342;51.442;7.370;2023-03-23T03:20:01;98782.19;;;12.58;100.00
71239;BME280;61342;51.442;7.370;2023-03-23T03:21:10;98792.19;;;12.57;100.00
71239;BME280;61342;51.442;7.370;2023-03-23T03:22:13;98796.78;;;12.60;100.00
71239;BME280;61342;51.442;7.370;2023-03-23T03:23:14;98777.78;;;12.57;100.00
71239;BME280;61342;51.442;7.370;2023-03-23T03:24:18;98785.84;;;12.58;100.00
71239;BME280;61342;51.442;7.370;2023-03-23T03:25:20;98782.19;;;12.58;100.00
71239;BME280;61342;51.442;7.370;2023-03-23T03:26:23;98777.94;;;12.59;100.00
71239;BME280;61342;51.442;7.370;2023-03-23T03:27:27;98778.72;;;12.59;100.00
71239;BME280;61342;51.442;7.370;2023-03-23T03:28:28;98778.53;;;12.57;100.00
71239;BME280;61342;51.442;7.370;2023-03-23T03:29:32;98777.19;;;12.58;100.00
71239;BME280;61342;51.442;7.370;2023-03-23T03:30:35;98770.06;;;12.59;100.00
71239;BME280;61342;51.442;7.370;2023-03-23T03:31:39;98781.78;;;12.61;100.00
71239;BME280;61342;51.442;7.370;2023-03-23T03:32:46;98784.69;;;12.61;100.00
71239;BME280;61342;51.442;7.370;2023-03-23T03:33:49;98788.31;;;12.62;100.00
71239;BME280;61342;51.442;7.370;2023-03-23T03:34:50;98782.97;;;12.58;100.00
71239;BME280;61342;51.442;7.370;2023-03-23T03:35:57;98782.56;;;12.62;100.00
71239;BME280;61342;51.442;7.370;2023-03-23T03:36:59;98771.44;;;12.58;100.00
71239;BME280;61342;51.442;7.370;2023-03-23T03:38:05;98777.38;;;12.60;100.00
71239;BME280;61342;51.442;7.370;2023-03-23T03:39:08;98778.31;;;12.63;100.00
71239;BME280;61342;51.442;7.370;2023-03-23T03:40:15;98778.16;;;12.61;100.00
71239;BME280;61342;51.442;7.370;2023-03-23T03:41:17;98785.63;;;12.64;100.00
71239;BME280;61342;51.442;7.370;2023-03-23T03:42:18;98790.63;;;12.63;100.00
71239;BME280;61342;51.442;7.370;2023-03-23T03:43:19;98763.75;;;12.53;100.00
71239;BME280;61342;51.442;7.370;2023-03-23T03:44:20;98788.69;;;12.65;100.00
71239;BME280;61342;51.442;7.370;2023-03-23T03:45:20;98781.41;;;12.65;100.00
71239;BME280;61342;51.442;7.370;2023-03-23T03:46:20;98777.00;;;12.64;100.00
71239;BME280;61342;51.442;7.370;2023-03-23T03:47:21;98785.81;;;12.65;100.00
71239;BME280;61342;51.442;7.370;2023-03-23T03:48:21;98777.16;;;12.65;100.00
71239;BME280;61342;51.442;7.370;2023-03-23T03:49:22;98794.66;;;12.67;100.00
71239;BME280;61342;51.442;7.370;2023-03-23T03:50:22;98790.22;;;12.66;100.00
71239;BME280;61342;51.442;7.370;2023-03-23T03:51:25;98786.75;;;12.68;100.00
71239;BME280;61342;51.442;7.370;2023-03-23T03:52:26;98780.25;;;12.67;100.00
71239;BME280;61342;51.442;7.370;2023-03-23T03:53:27;98790.22;;;12.66;100.00
71239;BME280;61342;51.442;7.370;2023-03-23T03:54:28;98793.31;;;12.68;100.00
71239;BME280;61342;51.442;7.370;2023-03-23T03:55:28;98796.97;;;12.69;100.00
71239;BME280;61342;51.442;7.370;2023-03-23T03:56:29;98778.16;;;12.61;100.00
71239;BME280;61342;51.442;7.370;2023-03-23T03:57:31;98782.94;;;12.65;100.00
71239;BME280;61342;51.442;7.370;2023-03-23T03:58:32;98799.84;;;12.69;100.00
71239;BME280;61342;51.442;7.370;2023-03-23T03:59:32;98785.44;;;12.62;100.00
71239;BME280;61342;51.442;7.370;2023-03-23T04:00:32;98791.00;;;12.67;100.00
71239;BME280;61342;51.442;7.370;2023-03-23T04:01:34;98803.31;;;12.67;100.00
71239;BME280;61342;51.442;7.370;2023-03-23T04:02:34;98797.53;;;12.67;100.00
71239;BME280;61342;51.442;7.370;2023-03-23T04:03:36;98807.91;;;12.70;100.00
71239;BME280;61342;51.442;7.370;2023-03-23T04:04:36;98795.63;;;12.70;100.00
71239;BME280;61342;51.442;7.370;2023-03-23T04:05:36;98795.63;;;12.63;100.00
71239;BME280;61342;51.442;7.370;2023-03-23T04:06:37;98803.31;;;12.67;100.00
71239;BME280;61342;51.442;7.370;2023-03-23T04:07:37;98799.84;;;12.69;100.00
71239;BME280;61342;51.442;7.370;2023-03-23T04:08:39;98788.31;;;12.69;100.00
71239;BME280;61342;51.442;7.370;2023-03-23T04:09:42;98767.75;;;12.58;100.00
71239;BME280;61342;51.442;7.370;2023-03-23T04:10:47;98761.25;;;12.57;100.00
71239;BME280;61342;51.442;7.370;2023-03-23T04:11:58;98762.19;;;12.60;100.00
71239;BME280;61342;51.442;7.370;2023-03-23T04:13:09;98774.09;;;12.71;100.00
71239;BME280;61342;51.442;7.370;2023-03-23T04:14:11;98776.78;;;12.69;99.98
71239;BME280;61342;51.442;7.370;2023-03-23T04:15:20;98782.16;;;12.72;100.00
71239;BME280;61342;51.442;7.370;2023-03-23T04:16:21;98783.72;;;12.66;100.00
71239;BME280;61342;51.442;7.370;2023-03-23T04:17:21;98761.41;;;12.59;99.69
71239;BME280;61342;51.442;7.370;2023-03-23T04:18:21;98770.84;;;12.60;100.00
71239;BME280;61342;51.442;7.370;2023-03-23T04:19:37;98780.47;;;12.62;99.73
71239;BME280;61342;51.442;7.370;2023-03-23T04:20:38;98795.22;;;12.73;99.88
71239;BME280;61342;51.442;7.370;2023-03-23T04:21:39;98785.81;;;12.73;99.30
71239;BME280;61342;51.442;7.370;2023-03-23T04:22:41;98774.84;;;12.71;99.48
71239;BME280;61342;51.442;7.370;2023-03-23T04:23:43;98771.41;;;12.65;98.88
71239;BME280;61342;51.442;7.370;2023-03-23T04:24:51;98777.00;;;12.64;99.22
71239;BME280;61342;51.442;7.370;2023-03-23T04:25:54;98790.59;;;12.70;98.96
71239;BME280;61342;51.442;7.370;2023-03-23T04:26:57;98773.72;;;12.60;98.99
71239;BME280;61342;51.442;7.370;2023-03-23T04:28:00;98776.41;;;12.65;99.16
71239;BME280;61342;51.442;7.370;2023-03-23T04:29:03;98771.41;;;12.65;98.73
71239;BME280;61342;51.442;7.370;2023-03-23T04:30:06;98783.31;;;12.69;98.59
71239;BME280;61342;51.442;7.370;2023-03-23T04:31:14;98776.03;;;12.68;98.84
71239;BME280;61342;51.442;7.370;2023-03-23T04:32:15;98783.13;;;12.67;98.37
71239;BME280;61342;51.442;7.370;2023-03-23T04:33:18;98788.69;;;12.73;98.74
71239;BME280;61342;51.442;7.370;2023-03-23T04:34:22;98783.72;;;12.66;98.47
71239;BME280;61342;51.442;7.370;2023-03-23T04:35:24;98786.75;;;12.68;98.52
71239;BME280;61342;51.442;7.370;2023-03-23T04:36:28;98778.13;;;12.68;98.47
71239;BME280;61342;51.442;7.370;2023-03-23T04:37:34;98789.28;;;12.71;98.18
71239;BME280;61342;51.442;7.370;2023-03-23T04:38:36;98778.31;;;12.70;98.28
71239;BME280;61342;51.442;7.370;2023-03-23T04:39:47;98776.03;;;12.68;98.18
71239;BME280;61342;51.442;7.370;2023-03-23T04:40:53;98770.63;;;12.72;98.08
71239;BME280;61342;51.442;7.370;2023-03-23T04:42:06;98770.25;;;12.68;98.18
71239;BME280;61342;51.442;7.370;2023-03-23T04:43:12;98779.06;;;12.78;98.09
71239;BME280;61342;51.442;7.370;2023-03-23T04:44:15;98797.13;;;12.78;98.07
71239;BME280;61342;51.442;7.370;2023-03-23T04:45:54;98767.94;;;12.67;97.90
71239;BME280;61342;51.442;7.370;2023-03-23T04:47:18;98777.91;;;12.73;98.03
71239;BME280;61342;51.442;7.370;2023-03-23T04:48:30;98769.69;;;12.63;97.73
71239;BME280;61342;51.442;7.370;2023-03-23T04:49:43;98758.34;;;12.65;98.01
71239;BME280;61342;51.442;7.370;2023-03-23T04:51:00;98796.38;;;12.78;97.88
71239;BME280;61342;51.442;7.370;2023-03-23T04:52:08;98777.75;;;12.64;97.50
71239;BME280;61342;51.442;7.370;2023-03-23T04:53:11;98772.94;;;12.74;97.48
71239;BME280;61342;51.442;7.370;2023-03-23T04:54:16;98782.16;;;12.72;97.71
71239;BME280;61342;51.442;7.370;2023-03-23T04:55:18;98776.56;;;12.74;97.62
71239;BME280;61342;51.442;7.370;2023-03-23T04:56:22;98787.34;;;12.74;97.30
71239;BME280;61342;51.442;7.370;2023-03-23T04:57:27;98801.72;;;12.81;97.20
71239;BME280;61342;51.442;7.370;2023-03-23T04:58:39;98803.25;;;12.82;97.04
71239;BME280;61342;51.442;7.370;2023-03-23T04:59:50;98798.84;;;12.81;97.21
71239;BME280;61342;51.442;7.370;2023-03-23T05:01:11;98774.09;;;12.71;96.96
71239;BME280;61342;51.442;7.370;2023-03-23T05:02:14;98781.00;;;12.75;97.06
71239;BME280;61342;51.442;7.370;2023-03-23T05:03:27;98800.97;;;12.73;96.81
71239;BME280;61342;51.442;7.370;2023-03-23T05:04:27;98790.41;;;12.76;96.40
71239;BME280;61342;51.442;7.370;2023-03-23T05:05:28;98778.13;;;12.68;96.69
71239;BME280;61342;51.442;7.370;2023-03-23T05:06:32;98797.13;;;12.78;96.47
71239;BME280;61342;51.442;7.370;2023-03-23T05:07:32;98795.59;;;12.85;96.76
71239;BME280;61342;51.442;7.370;2023-03-23T05:08:33;98778.28;;;12.77;96.65
71239;BME280;61342;51.442;7.370;2023-03-23T05:09:34;98774.06;;;12.78;96.72
71239;BME280;61342;51.442;7.370;2023-03-23T05:10:35;98785.78;;;12.80;96.42
71239;BME280;61342;51.442;7.370;2023-03-23T05:11:36;98760.44;;;12.71;96.29
71239;BME280;61342;51.442;7.370;2023-03-23T05:12:37;98776.16;;;12.85;96.49
71239;BME280;61342;51.442;7.370;2023-03-23T05:13:37;98767.16;;;12.74;96.36
71239;BME280;61342;51.442;7.370;2023-03-23T05:14:41;98783.66;;;12.81;96.42
71239;BME280;61342;51.442;7.370;2023-03-23T05:15:50;98787.91;;;12.87;96.24
71239;BME280;61342;51.442;7.370;2023-03-23T05:21:25;98793.31;;;12.68;96.04
71239;BME280;61342;51.442;7.370;2023-03-23T05:22:27;98807.16;;;12.63;96.27
71239;BME280;61342;51.442;7.370;2023-03-23T05:23:28;98808.88;;;12.73;96.44
71239;BME280;61342;51.442;7.370;2023-03-23T05:24:35;98825.41;;;12.72;96.73
71239;BME280;61342;51.442;7.370;2023-03-23T05:25:36;98821.16;;;12.73;96.66
71239;BME280;61342;51.442;7.370;2023-03-23T05:26:40;98810.63;;;12.68;96.98
71239;BME280;61342;51.442;7.370;2023-03-23T05:27:41;98802.94;;;12.71;96.70
71239;BME280;61342;51.442;7.370;2023-03-23T05:28:48;98802.94;;;12.71;96.98
71239;BME280;61342;51.442;7.370;2023-03-23T05:29:52;98818.66;;;12.77;96.45
71239;BME280;61342;51.442;7.370;2023-03-23T05:30:53;98821.38;;;12.75;96.63
71239;BME280;61342;51.442;7.370;2023-03-23T05:31:54;98809.81;;;12.75;96.78
71239;BME280;61342;51.442;7.370;2023-03-23T05:33:04;98809.81;;;12.75;96.79
71239;BME280;61342;51.442;7.370;2023-03-23T05:34:05;98809.81;;;12.75;96.32
71239;BME280;61342;51.442;7.370;2023-03-23T05:35:06;98800.97;;;12.73;96.56
71239;BME280;61342;51.442;7.370;2023-03-23T05:36:06;98817.88;;;12.84;96.40
71239;BME280;61342;51.442;7.370;2023-03-23T05:37:10;98812.88;;;12.77;96.07
71239;BME280;61342;51.442;7.370;2023-03-23T05:38:15;98801.94;;;12.76;96.29
71239;BME280;61342;51.442;7.370;2023-03-23T05:39:19;98811.38;;;12.76;96.03
71239;BME280;61342;51.442;7.370;2023-03-23T05:40:19;98808.28;;;12.74;95.90
71239;BME280;61342;51.442;7.370;2023-03-23T05:41:20;98807.91;;;12.78;96.05
71239;BME280;61342;51.442;7.370;2023-03-23T05:42:31;98819.03;;;12.81;95.87
71239;BME280;61342;51.442;7.370;2023-03-23T05:43:31;98809.81;;;12.83;95.99
71239;BME280;61342;51.442;7.370;2023-03-23T05:44:32;98828.66;;;12.91;95.79
71239;BME280;61342;51.442;7.370;2023-03-23T05:45:32;98818.66;;;12.85;95.81
71239;BME280;61342;51.442;7.370;2023-03-23T05:46:33;98810.22;;;12.87;95.64
71239;BME280;61342;51.442;7.370;2023-03-23T05:47:36;98816.38;;;12.91;95.40
71239;BME280;61342;51.442;7.370;2023-03-23T05:48:37;98832.50;;;12.94;95.18
71239;BME280;61342;51.442;7.370;2023-03-23T05:49:38;98816.72;;;12.80;95.27
71239;BME280;61342;51.442;7.370;2023-03-23T05:50:38;98828.28;;;12.95;95.00
71239;BME280;61342;51.442;7.370;2023-03-23T05:51:39;98834.03;;;12.95;95.02
71239;BME280;61342;51.442;7.370;2023-03-23T05:52:43;98820.59;;;12.90;95.15
71239;BME280;61342;51.442;7.370;2023-03-23T05:53:43;98804.81;;;12.91;94.65
71239;BME280;61342;51.442;7.370;2023-03-23T05:54:44;98815.56;;;12.90;94.73
71239;BME280;61342;51.442;7.370;2023-03-23T05:55:45;98823.09;;;12.93;95.00
71239;BME280;61342;51.442;7.370;2023-03-23T05:56:45;98810.41;;;12.89;94.73
71239;BME280;61342;51.442;7.370;2023-03-23T06:00:46;98813.25;;;12.81;94.48
71239;BME280;61342;51.442;7.370;2023-03-23T06:01:57;98810.59;;;12.76;94.58
71239;BME280;61342;51.442;7.370;2023-03-23T06:02:57;98825.97;;;12.86;94.65
71239;BME280;61342;51.442;7.370;2023-03-23T06:03:58;98808.28;;;12.74;94.50
71239;BME280;61342;51.442;7.370;2023-03-23T06:04:59;98821.53;;;12.77;94.90
71239;BME280;61342;51.442;7.370;2023-03-23T06:05:59;98825.41;;;12.87;94.78